Time;durP1;ratioP1;P1;durP2;ratioP2;P2;SDS_P1;SDS_P2;PMS_P1;PMS_P2;Temp;Humidity;BMP_temperature;BMP_pressure;BME280_temperature;BME280_humidity;BME280_pressure;Samples;Min_cycle;Max_cycle;Signal;HPM_P1;HPM_P2
2023/09/18 00:00:15;;;;;;;9.75;8.75;;;21.00;93.10;;;;;;5020810;28;20022;-93
2023/09/18 00:02:40;;;;;;;13.57;9.75;;;21.00;93.20;;;;;;5013622;28;20033;-93
2023/09/18 00:05:06;;;;;;;12.32;8.50;;;21.00;93.20;;;;;;5002893;28;20019;-91
2023/09/18 00:07:32;;;;;;;8.75;7.88;;;21.00;93.20;;;;;;5000357;28;20030;-91
2023/09/18 00:09:57;;;;;;;9.93;8.85;;;21.00;93.20;;;;;;5008418;28;20026;-92
2023/09/18 00:12:23;;;;;;;11.15;9.95;;;21.00;93.20;;;;;;5012808;28;20034;-91
2023/09/18 00:14:50;;;;;;;10.95;9.85;;;21.00;93.10;;;;;;5003644;28;20378;-92
2023/09/18 00:17:16;;;;;;;10.02;8.90;;;21.00;93.20;;;;;;5004627;28;20044;-91
2023/09/18 00:19:43;;;;;;;12.45;10.20;;;21.00;93.20;;;;;;4999123;28;20018;-92
2023/09/18 00:22:08;;;;;;;10.10;8.85;;;21.00;93.20;;;;;;4998318;28;20118;-92
2023/09/18 00:24:34;;;;;;;10.70;9.30;;;21.00;93.30;;;;;;5006936;28;20062;-92
2023/09/18 00:26:59;;;;;;;11.27;9.55;;;20.90;93.30;;;;;;5000782;28;20018;-93
2023/09/18 00:29:25;;;;;;;11.80;8.88;;;20.90;93.30;;;;;;5012358;28;20404;-91
2023/09/18 00:31:51;;;;;;;10.45;9.00;;;20.90;93.30;;;;;;5006105;28;20022;-92
2023/09/18 00:34:16;;;;;;;10.20;9.05;;;21.00;93.30;;;;;;5005085;28;20034;-92
2023/09/18 00:36:42;;;;;;;11.63;8.98;;;21.00;93.30;;;;;;5002954;28;20046;-93
2023/09/18 00:39:08;;;;;;;10.93;9.20;;;20.90;93.30;;;;;;5009390;28;20057;-92
2023/09/18 00:41:33;;;;;;;10.60;9.38;;;21.00;93.30;;;;;;5001216;28;20010;-93
2023/09/18 00:43:59;;;;;;;11.93;9.40;;;20.90;93.30;;;;;;5007578;28;20081;-92
2023/09/18 00:46:25;;;;;;;11.48;9.20;;;20.90;93.40;;;;;;5003872;28;20069;-92
2023/09/18 00:48:51;;;;;;;11.30;9.35;;;20.90;93.40;;;;;;5004804;28;20034;-92
2023/09/18 00:51:17;;;;;;;9.57;8.57;;;20.90;93.40;;;;;;4995725;28;20014;-92
2023/09/18 00:53:50;;;;;;;11.10;9.05;;;21.00;93.40;;;;;;5009672;28;20112;-91
2023/09/18 00:56:16;;;;;;;10.55;9.45;;;20.90;93.40;;;;;;5008462;28;20521;-91
2023/09/18 00:58:43;;;;;;;12.80;10.88;;;20.90;93.50;;;;;;5001996;28;20061;-91
2023/09/18 01:01:11;;;;;;;11.82;9.77;;;20.90;93.50;;;;;;4999091;28;20021;-90
2023/09/18 01:03:36;;;;;;;13.27;10.18;;;20.90;93.50;;;;;;4997055;28;20041;-91
2023/09/18 01:06:03;;;;;;;11.13;9.98;;;20.90;93.50;;;;;;4994446;28;20473;-90
2023/09/18 01:08:30;;;;;;;14.75;9.85;;;20.90;93.60;;;;;;5013092;28;20536;-91
2023/09/18 01:11:14;;;;;;;12.18;9.07;;;20.90;93.60;;;;;;4999238;28;20014;-91
2023/09/18 01:14:02;;;;;;;10.00;8.82;;;20.90;93.60;;;;;;4994630;28;20078;-92
2023/09/18 01:16:43;;;;;;;12.55;9.13;;;20.90;93.70;;;;;;5010330;28;20531;-91
2023/09/18 01:19:09;;;;;;;10.63;8.95;;;20.90;93.70;;;;;;5013329;28;20014;-91
2023/09/18 01:21:35;;;;;;;11.45;9.02;;;20.90;93.60;;;;;;4996458;28;20030;-91
2023/09/18 01:24:00;;;;;;;11.07;9.20;;;20.90;93.60;;;;;;4998534;28;20083;-92
2023/09/18 01:26:26;;;;;;;10.15;8.55;;;21.00;93.50;;;;;;4995847;28;20034;-91
2023/09/18 01:28:52;;;;;;;12.65;11.10;;;20.90;93.40;;;;;;5014399;28;20081;-93
2023/09/18 01:31:18;;;;;;;11.27;9.77;;;20.90;93.50;;;;;;4997810;28;20079;-91
2023/09/18 01:33:47;;;;;;;12.88;10.02;;;20.90;93.50;;;;;;5005720;28;20117;-90
2023/09/18 01:36:14;;;;;;;14.43;11.00;;;20.90;93.50;;;;;;5014516;28;20469;-90
2023/09/18 01:38:40;;;;;;;10.85;8.98;;;20.80;93.60;;;;;;5005134;28;20108;-91
2023/09/18 01:41:06;;;;;;;12.20;10.57;;;20.80;93.60;;;;;;5038122;28;20011;-93
2023/09/18 01:43:32;;;;;;;10.77;9.68;;;20.80;93.60;;;;;;5029533;28;20026;-93
2023/09/18 01:45:57;;;;;;;12.40;10.70;;;20.80;93.70;;;;;;5014538;28;20250;-94
2023/09/18 01:48:23;;;;;;;11.95;10.13;;;20.80;93.80;;;;;;5018752;28;20038;-93
2023/09/18 01:50:48;;;;;;;11.20;10.00;;;20.70;93.80;;;;;;5006624;28;20061;-94
2023/09/18 01:53:15;;;;;;;11.15;9.90;;;20.70;93.80;;;;;;5023340;28;20061;-92
2023/09/18 01:55:41;;;;;;;10.88;9.52;;;20.80;94.10;;;;;;5021029;28;20117;-93
2023/09/18 01:58:07;;;;;;;11.18;9.48;;;20.80;93.80;;;;;;5006778;28;20031;-94
2023/09/18 02:00:33;;;;;;;14.73;10.43;;;20.80;93.80;;;;;;5015122;28;20151;-93
2023/09/18 02:02:59;;;;;;;13.07;9.93;;;20.80;93.80;;;;;;5000073;28;20027;-93
2023/09/18 02:05:25;;;;;;;13.35;10.57;;;20.80;93.80;;;;;;5003585;28;20417;-94
2023/09/18 02:07:51;;;;;;;11.98;9.85;;;20.80;93.80;;;;;;5013360;28;20020;-94
2023/09/18 02:10:16;;;;;;;13.40;10.35;;;20.80;93.80;;;;;;5034368;28;20492;-92
2023/09/18 02:12:42;;;;;;;10.85;8.98;;;20.70;93.80;;;;;;5012736;28;20002;-90
2023/09/18 02:15:10;;;;;;;9.80;8.70;;;20.70;93.80;;;;;;5011424;28;20057;-92
2023/09/18 02:17:37;;;;;;;11.73;9.52;;;20.80;93.70;;;;;;5019072;28;20041;-93
2023/09/18 02:20:11;;;;;;;11.15;9.70;;;20.80;93.90;;;;;;5020614;28;20098;-93
2023/09/18 02:22:40;;;;;;;11.75;9.40;;;20.70;93.70;;;;;;5013666;28;20022;-93
2023/09/18 02:25:07;;;;;;;14.75;11.07;;;20.80;93.80;;;;;;5038745;28;20069;-93
2023/09/18 02:27:33;;;;;;;12.05;9.60;;;20.70;93.80;;;;;;5003414;28;20006;-94
2023/09/18 02:29:59;;;;;;;10.23;8.63;;;20.70;93.80;;;;;;5021147;28;20010;-94
2023/09/18 02:32:25;;;;;;;11.35;9.48;;;20.80;93.80;;;;;;5010749;28;20045;-93
2023/09/18 02:34:50;;;;;;;12.18;9.23;;;20.70;93.70;;;;;;5027804;28;20055;-92
2023/09/18 02:37:16;;;;;;;10.60;9.48;;;20.80;93.70;;;;;;5020635;28;20022;-92
2023/09/18 02:39:42;;;;;;;11.80;9.05;;;20.80;93.60;;;;;;5008919;28;20061;-92
2023/09/18 02:42:08;;;;;;;9.68;8.63;;;20.80;93.60;;;;;;5012154;28;20034;-92
2023/09/18 02:44:34;;;;;;;9.93;8.20;;;20.80;93.60;;;;;;5030686;28;20006;-91
2023/09/18 02:46:59;;;;;;;9.75;8.02;;;20.90;93.50;;;;;;5012160;28;20022;-92
2023/09/18 02:49:25;;;;;;;11.13;9.52;;;20.90;93.50;;;;;;5034483;28;20033;-93
2023/09/18 02:51:51;;;;;;;9.70;8.35;;;20.90;93.40;;;;;;5014095;28;20041;-93
2023/09/18 02:54:17;;;;;;;10.43;8.63;;;20.90;93.40;;;;;;5013522;28;20038;-92
2023/09/18 02:56:43;;;;;;;11.23;9.68;;;20.90;93.40;;;;;;5012902;28;20109;-92
2023/09/18 02:59:09;;;;;;;9.90;8.23;;;20.80;93.40;;;;;;5003785;28;20030;-95
2023/09/18 03:01:34;;;;;;;12.18;8.13;;;20.90;93.70;;;;;;5029346;28;20065;-93
2023/09/18 03:04:01;;;;;;;9.93;7.78;;;20.90;93.40;;;;;;4999341;28;20390;-93
2023/09/18 03:06:26;;;;;;;13.27;9.30;;;20.90;93.30;;;;;;5024433;28;20053;-94
2023/09/18 03:08:52;;;;;;;10.70;7.85;;;20.90;93.30;;;;;;5008375;28;20022;-95
2023/09/18 03:11:18;;;;;;;10.00;8.70;;;20.90;93.30;;;;;;5032431;28;20011;-94
2023/09/18 03:13:46;;;;;;;14.77;10.80;;;20.80;93.30;;;;;;5011744;28;20189;-94
2023/09/18 03:16:12;;;;;;;13.23;10.00;;;20.80;93.50;;;;;;5040284;28;20030;-93
2023/09/18 03:18:37;;;;;;;10.25;8.90;;;20.80;93.50;;;;;;5017239;28;20029;-94
2023/09/18 03:21:04;;;;;;;14.18;9.88;;;20.70;93.60;;;;;;5021988;28;20066;-95
2023/09/18 03:23:29;;;;;;;12.52;9.93;;;20.80;93.60;;;;;;5007182;28;20021;-95
2023/09/18 03:25:55;;;;;;;9.93;7.50;;;20.80;93.60;;;;;;4996560;28;20451;-94
2023/09/18 03:28:20;;;;;;;8.77;7.43;;;20.90;93.60;;;;;;4996779;28;20028;-94
2023/09/18 03:30:46;;;;;;;10.88;8.60;;;20.80;93.80;;;;;;4998464;28;20022;-94
2023/09/18 03:33:12;;;;;;;9.55;7.60;;;20.80;93.80;;;;;;4995671;28;20022;-94
2023/09/18 03:35:49;;;;;;;10.13;8.07;;;20.80;93.50;;;;;;4997045;28;20045;-94
2023/09/18 03:38:15;;;;;;;11.35;7.80;;;20.90;93.40;;;;;;4991802;28;20033;-94
2023/09/18 03:40:41;;;;;;;8.50;6.50;;;20.90;93.40;;;;;;5005143;28;20029;-93
2023/09/18 03:43:07;;;;;;;9.70;7.03;;;21.00;93.30;;;;;;4998886;28;20018;-93
2023/09/18 03:45:32;;;;;;;9.40;7.40;;;21.00;93.20;;;;;;5004780;28;20033;-93
2023/09/18 03:47:58;;;;;;;10.32;7.22;;;21.00;93.10;;;;;;5002652;28;20108;-93
2023/09/18 03:50:27;;;;;;;9.45;7.10;;;21.10;93.00;;;;;;5015730;28;20460;-94
2023/09/18 03:52:52;;;;;;;8.85;6.95;;;21.10;93.00;;;;;;5014239;28;20030;-94
2023/09/18 03:55:18;;;;;;;9.15;6.90;;;21.10;92.90;;;;;;5003260;28;20046;-91
2023/09/18 03:57:45;;;;;;;10.90;7.40;;;21.20;92.90;;;;;;5016185;28;20027;-92
2023/09/18 04:00:11;;;;;;;9.13;7.90;;;21.20;92.80;;;;;;5013399;28;20026;-92
2023/09/18 04:02:37;;;;;;;7.53;6.57;;;21.20;92.80;;;;;;5010878;28;20034;-92
2023/09/18 04:05:03;;;;;;;10.52;7.65;;;21.20;92.70;;;;;;5014621;28;20052;-91
2023/09/18 04:07:29;;;;;;;11.60;8.50;;;21.10;92.70;;;;;;5016026;28;20026;-91
2023/09/18 04:09:54;;;;;;;9.98;7.25;;;21.10;92.70;;;;;;5013936;28;20050;-92
2023/09/18 04:12:20;;;;;;;8.35;6.47;;;21.10;92.70;;;;;;5001435;28;20026;-93
2023/09/18 04:14:45;;;;;;;8.00;7.00;;;21.10;92.80;;;;;;5012005;28;20099;-92
2023/09/18 04:17:11;;;;;;;10.25;7.70;;;21.10;93.00;;;;;;5014751;28;20121;-93
2023/09/18 04:19:36;;;;;;;10.77;8.82;;;21.10;92.70;;;;;;5019010;28;20002;-94
2023/09/18 04:22:02;;;;;;;8.93;7.00;;;21.10;92.70;;;;;;5014739;28;20037;-93
2023/09/18 04:24:28;;;;;;;9.90;6.97;;;21.10;92.70;;;;;;5016531;28;20045;-93
2023/09/18 04:26:53;;;;;;;10.05;7.10;;;21.20;92.70;;;;;;5013422;28;20023;-92
2023/09/18 04:29:19;;;;;;;6.90;5.88;;;21.20;92.70;;;;;;5006975;28;20061;-92
2023/09/18 04:31:45;;;;;;;8.45;6.07;;;21.20;92.60;;;;;;4994774;28;20023;-91
2023/09/18 04:34:11;;;;;;;8.30;6.10;;;21.20;92.60;;;;;;5009286;28;20034;-92
2023/09/18 04:36:37;;;;;;;8.43;6.35;;;21.20;92.60;;;;;;5026916;28;20110;-91
2023/09/18 04:39:30;;;;;;;8.55;6.50;;;21.20;92.50;;;;;;5005384;28;20022;-92
2023/09/18 04:41:55;;;;;;;6.75;5.90;;;21.20;92.50;;;;;;4997387;28;20130;-92
2023/09/18 04:44:21;;;;;;;10.88;8.10;;;21.20;92.50;;;;;;4999580;28;20035;-92
2023/09/18 04:46:48;;;;;;;12.30;7.50;;;21.20;92.50;;;;;;5013566;28;20102;-91
2023/09/18 04:49:14;;;;;;;8.98;6.72;;;21.10;92.60;;;;;;5009914;28;20114;-92
2023/09/18 04:51:46;;;;;;;14.07;9.32;;;21.10;92.70;;;;;;4995649;28;20022;-94
2023/09/18 04:54:15;;;;;;;10.02;7.38;;;21.00;92.70;;;;;;5002356;28;20042;-95
2023/09/18 04:56:41;;;;;;;8.65;6.45;;;21.00;93.10;;;;;;4999573;28;20127;-95
2023/09/18 04:59:06;;;;;;;10.07;6.78;;;21.00;92.90;;;;;;5000017;28;20022;-93
2023/09/18 05:01:32;;;;;;;8.38;6.25;;;21.00;92.90;;;;;;4995700;28;20029;-94
2023/09/18 05:03:58;;;;;;;9.15;6.60;;;20.90;93.00;;;;;;4999522;28;20018;-95
2023/09/18 05:06:23;;;;;;;8.75;6.55;;;21.00;93.10;;;;;;4996532;28;20418;-94
2023/09/18 05:08:49;;;;;;;8.57;6.82;;;21.00;93.00;;;;;;4997812;28;20022;-93
2023/09/18 05:11:16;;;;;;;10.00;6.30;;;21.00;93.10;;;;;;4994770;28;20072;-95
2023/09/18 05:13:44;;;;;;;9.15;6.93;;;21.00;93.10;;;;;;5002604;28;20033;-96
2023/09/18 05:16:10;;;;;;;10.65;7.20;;;21.00;93.10;;;;;;4997164;28;20022;-94
2023/09/18 05:18:37;;;;;;;12.40;6.80;;;21.00;93.20;;;;;;5004478;28;20469;-94
2023/09/18 05:21:09;;;;;;;9.63;7.10;;;21.00;93.30;;;;;;4995252;28;20044;-93
2023/09/18 05:23:36;;;;;;;8.88;5.75;;;21.00;93.40;;;;;;4980221;28;20030;-92
2023/09/18 05:26:01;;;;;;;8.70;6.03;;;21.00;93.40;;;;;;4996003;28;20041;-87
2023/09/18 05:28:27;;;;;;;9.63;6.47;;;21.00;93.40;;;;;;4994889;28;20074;-92
2023/09/18 05:30:53;;;;;;;8.93;6.40;;;20.90;93.50;;;;;;4991047;28;20033;-91
2023/09/18 05:33:19;;;;;;;10.55;6.30;;;21.00;93.60;;;;;;4989973;28;20041;-91
2023/09/18 05:35:46;;;;;;;9.43;6.22;;;21.00;93.70;;;;;;5008815;28;20026;-88
2023/09/18 05:38:14;;;;;;;8.35;6.18;;;20.90;93.70;;;;;;4990603;28;20034;-89
2023/09/18 05:40:40;;;;;;;8.80;5.88;;;21.00;93.80;;;;;;4988361;28;20029;-89
2023/09/18 05:43:07;;;;;;;7.22;5.63;;;21.00;93.90;;;;;;5016081;28;20041;-89
2023/09/18 05:45:33;;;;;;;8.68;6.13;;;21.00;93.80;;;;;;4988380;28;20018;-88
2023/09/18 05:48:05;;;;;;;8.23;5.30;;;21.00;93.90;;;;;;5006103;28;20723;-89
2023/09/18 05:50:32;;;;;;;9.38;6.32;;;21.00;93.90;;;;;;4995805;28;20788;-89
2023/09/18 05:53:03;;;;;;;8.90;5.57;;;21.00;93.90;;;;;;4990759;28;20296;-89
2023/09/18 05:55:33;;;;;;;6.40;5.65;;;21.00;93.90;;;;;;4999411;28;20042;-89
2023/09/18 05:57:59;;;;;;;6.93;5.55;;;21.00;93.90;;;;;;4988374;28;20068;-89
2023/09/18 06:00:25;;;;;;;9.95;6.35;;;21.00;94.00;;;;;;5004220;28;20046;-90
2023/09/18 06:02:53;;;;;;;8.85;6.40;;;21.00;94.00;;;;;;4989793;28;20424;-90
2023/09/18 06:05:22;;;;;;;7.95;5.88;;;21.00;94.20;;;;;;4991194;28;20034;-88
2023/09/18 06:07:48;;;;;;;9.60;6.70;;;21.00;94.10;;;;;;4996387;28;20026;-88
2023/09/18 06:10:14;;;;;;;9.55;6.95;;;21.00;94.50;;;;;;4997166;28;20417;-88
2023/09/18 06:12:40;;;;;;;8.02;6.78;;;21.00;94.20;;;;;;4990822;28;20035;-88
2023/09/18 06:15:09;;;;;;;8.00;6.72;;;21.00;94.30;;;;;;4990709;28;20034;-88
2023/09/18 06:17:36;;;;;;;7.05;6.15;;;21.00;94.30;;;;;;4991800;28;20070;-87
2023/09/18 06:20:03;;;;;;;8.90;7.57;;;21.00;94.30;;;;;;4998000;28;20030;-88
2023/09/18 06:22:29;;;;;;;10.73;8.70;;;21.00;94.50;;;;;;4996612;28;20030;-88
2023/09/18 06:24:54;;;;;;;10.00;7.78;;;21.00;94.50;;;;;;4999380;28;20030;-87
2023/09/18 06:27:20;;;;;;;12.35;7.72;;;21.00;94.60;;;;;;5000036;28;20061;-93
2023/09/18 06:29:46;;;;;;;11.82;7.93;;;21.00;94.60;;;;;;5003719;28;20481;-90
2023/09/18 06:32:12;;;;;;;9.90;7.05;;;21.00;94.70;;;;;;4998493;28;20042;-90
2023/09/18 06:34:38;;;;;;;13.23;9.43;;;21.00;94.60;;;;;;4988762;28;20042;-90
2023/09/18 06:37:06;;;;;;;8.18;6.82;;;21.00;94.70;;;;;;4994870;28;20018;-91
2023/09/18 06:39:31;;;;;;;9.85;7.20;;;21.10;94.70;;;;;;4996191;28;20061;-90
2023/09/18 06:41:57;;;;;;;10.65;6.53;;;21.10;94.60;;;;;;4991505;28;20489;-93
2023/09/18 06:44:23;;;;;;;7.63;6.43;;;21.10;94.60;;;;;;4998429;28;20030;-92
2023/09/18 06:46:49;;;;;;;9.50;6.55;;;21.20;94.50;;;;;;4998321;28;20022;-91
2023/09/18 06:49:14;;;;;;;10.77;6.80;;;21.20;94.50;;;;;;4992977;28;20760;-91
2023/09/18 06:51:42;;;;;;;7.97;5.68;;;21.10;94.50;;;;;;4999751;28;20027;-91
2023/09/18 06:54:07;;;;;;;9.60;6.93;;;21.20;94.50;;;;;;4998912;28;20096;-90
2023/09/18 06:56:33;;;;;;;8.68;6.40;;;21.20;94.40;;;;;;4992055;28;20414;-90
2023/09/18 06:58:58;;;;;;;9.75;6.88;;;21.10;94.50;;;;;;5018627;28;20026;-91
2023/09/18 07:01:25;;;;;;;9.77;6.20;;;21.10;94.50;;;;;;4996549;28;20066;-91
2023/09/18 07:03:51;;;;;;;9.77;6.45;;;21.20;94.50;;;;;;5009676;28;20026;-91
2023/09/18 07:06:20;;;;;;;9.80;5.60;;;21.20;94.50;;;;;;5007374;28;20172;-91
2023/09/18 07:08:47;;;;;;;5.90;5.07;;;21.20;94.40;;;;;;4996471;28;20357;-91
2023/09/18 07:11:12;;;;;;;8.98;5.32;;;21.20;94.30;;;;;;5006410;28;20022;-90
2023/09/18 07:13:38;;;;;;;6.78;5.38;;;21.20;94.10;;;;;;4992501;28;20053;-89
2023/09/18 07:16:04;;;;;;;6.78;4.60;;;21.20;94.00;;;;;;4994443;28;20022;-90
2023/09/18 07:18:29;;;;;;;6.63;4.10;;;21.20;93.90;;;;;;4994197;28;20027;-88
2023/09/18 07:20:55;;;;;;;7.18;4.10;;;21.20;93.80;;;;;;4989937;28;20030;-89
2023/09/18 07:23:21;;;;;;;6.00;3.75;;;21.30;93.80;;;;;;5031410;28;20018;-87
2023/09/18 07:25:49;;;;;;;5.53;3.97;;;21.30;93.60;;;;;;4992645;28;20030;-89
2023/09/18 07:28:17;;;;;;;6.00;4.18;;;21.30;93.50;;;;;;4999209;28;20041;-87
2023/09/18 07:30:43;;;;;;;6.20;3.40;;;21.30;93.30;;;;;;4983584;28;20118;-87
2023/09/18 07:33:16;;;;;;;5.95;3.90;;;21.40;93.20;;;;;;5018650;28;20396;-88
2023/09/18 07:35:41;;;;;;;3.92;3.13;;;21.40;93.00;;;;;;4993878;28;20034;-88
2023/09/18 07:38:07;;;;;;;6.18;3.58;;;21.40;92.90;;;;;;4994350;28;20398;-89
2023/09/18 07:40:33;;;;;;;6.10;3.40;;;21.40;92.70;;;;;;5008732;28;20026;-89
2023/09/18 07:42:59;;;;;;;4.03;3.20;;;21.40;92.60;;;;;;4993673;28;20381;-88
2023/09/18 07:45:25;;;;;;;4.85;3.20;;;21.40;92.60;;;;;;4995722;28;20026;-87
2023/09/18 07:47:50;;;;;;;4.85;3.30;;;21.40;92.40;;;;;;4998051;28;20705;-87
2023/09/18 07:50:17;;;;;;;4.85;3.22;;;21.40;92.30;;;;;;4998863;28;20428;-87
2023/09/18 07:52:42;;;;;;;4.05;3.05;;;21.30;92.20;;;;;;5020985;28;20023;-88
2023/09/18 07:55:09;;;;;;;4.57;3.30;;;21.40;92.10;;;;;;5002218;28;20081;-88
2023/09/18 07:57:35;;;;;;;4.55;3.25;;;21.40;92.00;;;;;;5011905;28;20504;-88
2023/09/18 08:00:07;;;;;;;5.38;3.03;;;21.30;92.10;;;;;;5002397;28;20034;-87
2023/09/18 08:02:34;;;;;;;4.93;2.78;;;21.40;91.80;;;;;;4996680;28;20025;-89
2023/09/18 08:05:01;;;;;;;3.53;2.75;;;21.40;91.80;;;;;;4995087;28;20112;-89
2023/09/18 08:07:28;;;;;;;5.28;2.97;;;21.40;91.70;;;;;;5035325;28;20022;-88
2023/09/18 08:09:53;;;;;;;4.15;3.10;;;21.40;91.60;;;;;;4995232;28;20053;-87
2023/09/18 08:12:19;;;;;;;3.70;2.50;;;21.40;91.40;;;;;;5010112;28;20022;-87
2023/09/18 08:14:44;;;;;;;3.35;2.30;;;21.40;91.40;;;;;;4996096;28;20026;-87
2023/09/18 08:17:10;;;;;;;3.28;2.28;;;21.40;91.50;;;;;;4997081;28;20505;-88
2023/09/18 08:19:36;;;;;;;3.63;2.63;;;21.50;91.50;;;;;;4994788;28;20037;-86
2023/09/18 08:22:03;;;;;;;3.08;2.30;;;21.60;91.30;;;;;;5002573;28;20038;-88
2023/09/18 08:24:29;;;;;;;3.17;2.67;;;21.60;91.20;;;;;;5000602;28;20033;-89
2023/09/18 08:26:55;;;;;;;4.20;2.90;;;21.50;91.10;;;;;;4994396;28;20026;-87
2023/09/18 08:29:22;;;;;;;3.60;2.47;;;21.60;91.00;;;;;;4994550;28;20721;-88
2023/09/18 08:31:49;;;;;;;3.38;2.70;;;21.70;91.00;;;;;;5006161;28;20033;-89
2023/09/18 08:34:14;;;;;;;3.22;2.40;;;21.60;90.70;;;;;;4996279;28;20031;-88
2023/09/18 08:36:40;;;;;;;4.63;2.67;;;21.60;90.60;;;;;;4991166;28;20033;-87
2023/09/18 08:39:06;;;;;;;2.30;2.10;;;21.70;90.70;;;;;;4998704;28;20026;-89
2023/09/18 08:41:32;;;;;;;2.78;2.20;;;21.70;90.70;;;;;;4992278;28;20027;-88
2023/09/18 08:44:03;;;;;;;3.55;2.05;;;21.70;90.50;;;;;;5006030;28;20034;-89
2023/09/18 08:46:30;;;;;;;3.97;2.35;;;21.70;90.50;;;;;;4996728;28;20024;-88
2023/09/18 08:48:58;;;;;;;4.25;2.63;;;21.80;90.40;;;;;;4990216;28;20528;-87
2023/09/18 08:51:24;;;;;;;4.03;2.30;;;21.90;90.00;;;;;;5020570;28;20030;-87
2023/09/18 08:53:51;;;;;;;4.20;2.13;;;21.90;89.70;;;;;;4990941;28;20393;-87
2023/09/18 08:56:17;;;;;;;3.20;1.80;;;22.00;89.70;;;;;;4991836;28;20485;-87
2023/09/18 08:58:43;;;;;;;4.00;2.35;;;22.00;89.60;;;;;;4991065;28;20026;-87
2023/09/18 09:01:10;;;;;;;3.80;2.40;;;22.00;89.40;;;;;;4995871;28;20023;-86
2023/09/18 09:03:40;;;;;;;3.13;2.00;;;22.00;88.90;;;;;;5021942;28;20027;-86
2023/09/18 09:06:07;;;;;;;3.45;2.30;;;22.00;88.80;;;;;;4989922;28;20528;-85
2023/09/18 09:08:34;;;;;;;4.05;2.38;;;22.00;88.50;;;;;;4990189;28;20026;-86
2023/09/18 09:11:00;;;;;;;2.83;2.00;;;21.90;88.00;;;;;;4990116;28;20105;-86
2023/09/18 09:13:26;;;;;;;4.68;2.25;;;21.90;88.10;;;;;;4990238;28;20030;-85
2023/09/18 09:15:59;;;;;;;3.17;2.25;;;21.90;87.80;;;;;;4991236;28;20562;-85
2023/09/18 09:18:29;;;;;;;3.63;2.03;;;21.90;87.60;;;;;;5022656;28;20425;-86
2023/09/18 09:21:04;;;;;;;3.22;2.35;;;21.90;87.60;;;;;;4998603;28;20045;-85
2023/09/18 09:23:45;;;;;;;4.03;1.70;;;21.90;87.50;;;;;;5022195;28;20110;-86
2023/09/18 09:26:16;;;;;;;3.47;1.80;;;22.00;87.70;;;;;;4991095;28;20152;-86
2023/09/18 09:28:43;;;;;;;2.55;1.90;;;22.00;87.50;;;;;;4989352;28;20428;-85
2023/09/18 09:31:10;;;;;;;3.40;2.10;;;22.00;87.20;;;;;;4990016;28;20027;-86
2023/09/18 09:33:38;;;;;;;3.00;1.85;;;22.00;86.90;;;;;;5021192;28;20053;-86
2023/09/18 09:36:05;;;;;;;5.35;2.45;;;22.00;87.00;;;;;;4990961;28;20018;-85
2023/09/18 09:38:34;;;;;;;3.00;1.80;;;22.20;86.80;;;;;;4990772;28;20114;-86
2023/09/18 09:41:00;;;;;;;5.32;2.20;;;22.20;86.40;;;;;;5001113;28;20018;-86
2023/09/18 09:43:27;;;;;;;3.40;1.60;;;22.30;85.50;;;;;;4994413;28;20022;-86
2023/09/18 09:46:01;;;;;;;4.20;2.05;;;22.50;85.60;;;;;;4991595;28;20139;-86
2023/09/18 09:48:27;;;;;;;4.10;1.98;;;22.50;85.00;;;;;;4996043;28;20428;-86
2023/09/18 09:50:59;;;;;;;4.53;2.20;;;22.50;84.60;;;;;;5021856;28;20058;-87
2023/09/18 09:53:48;;;;;;;3.38;1.83;;;22.50;84.30;;;;;;4989864;28;20030;-86
2023/09/18 09:56:14;;;;;;;3.22;1.88;;;22.60;84.50;;;;;;4986818;28;20030;-86
2023/09/18 09:58:43;;;;;;;2.42;1.80;;;22.70;84.20;;;;;;4997301;28;20388;-85
2023/09/18 10:01:17;;;;;;;4.40;2.00;;;22.80;83.30;;;;;;5004263;28;20235;-86
2023/09/18 10:03:46;;;;;;;5.60;2.00;;;22.80;83.00;;;;;;5021726;28;20567;-86
2023/09/18 10:06:13;;;;;;;3.20;2.00;;;22.70;82.30;;;;;;4989280;28;20026;-86
2023/09/18 10:08:40;;;;;;;3.00;1.98;;;22.80;82.20;;;;;;4987289;28;20525;-86
2023/09/18 10:11:10;;;;;;;3.47;2.10;;;22.90;81.90;;;;;;5000245;28;20496;-85
2023/09/18 10:13:53;;;;;;;4.50;2.30;;;22.90;81.50;;;;;;4990013;28;20026;-85
2023/09/18 10:16:25;;;;;;;3.03;1.95;;;22.90;81.00;;;;;;4988408;28;20639;-86
2023/09/18 10:18:54;;;;;;;2.20;1.80;;;22.90;80.30;;;;;;4996870;28;20477;-84
2023/09/18 10:21:31;;;;;;;4.35;2.03;;;23.00;80.30;;;;;;5019448;28;20026;-86
2023/09/18 10:23:59;;;;;;;2.58;1.55;;;23.00;80.10;;;;;;4989642;28;20026;-86
2023/09/18 10:26:28;;;;;;;3.42;1.40;;;23.00;80.00;;;;;;4983832;28;20064;-86
2023/09/18 10:28:58;;;;;;;4.45;2.55;;;23.10;80.20;;;;;;5004354;28;20424;-86
2023/09/18 10:31:26;;;;;;;2.67;1.73;;;23.00;79.30;;;;;;4990071;28;20088;-86
2023/09/18 10:33:53;;;;;;;5.90;2.20;;;22.90;79.80;;;;;;4989692;28;20045;-85
2023/09/18 10:36:20;;;;;;;3.65;2.28;;;22.90;79.90;;;;;;4989276;28;20060;-86
2023/09/18 10:38:51;;;;;;;3.78;2.10;;;22.80;79.90;;;;;;4986464;28;20026;-86
2023/09/18 10:41:20;;;;;;;3.45;2.15;;;22.90;80.00;;;;;;4991484;28;20057;-86
2023/09/18 10:43:47;;;;;;;4.07;2.15;;;23.00;80.00;;;;;;4991708;28;20023;-86
2023/09/18 10:46:13;;;;;;;6.75;2.58;;;23.10;79.70;;;;;;4988797;28;20034;-85
2023/09/18 10:48:43;;;;;;;7.40;2.90;;;23.20;79.10;;;;;;4985859;28;20076;-86
2023/09/18 10:51:09;;;;;;;3.80;2.35;;;23.10;78.20;;;;;;4990330;28;20018;-85
2023/09/18 10:53:35;;;;;;;4.88;2.40;;;23.00;78.20;;;;;;4993316;28;20026;-86
2023/09/18 10:56:04;;;;;;;4.63;2.22;;;23.00;78.10;;;;;;4995559;28;20033;-84
2023/09/18 10:58:30;;;;;;;4.80;2.50;;;22.90;78.20;;;;;;4989441;28;20526;-85
2023/09/18 11:00:57;;;;;;;3.67;2.20;;;23.00;78.40;;;;;;4986366;28;20541;-85
2023/09/18 11:03:23;;;;;;;2.55;2.17;;;23.00;78.30;;;;;;4988567;28;20076;-85
2023/09/18 11:06:10;;;;;;;3.80;2.38;;;23.00;78.30;;;;;;4997401;28;20018;-85
2023/09/18 11:08:53;;;;;;;3.45;2.00;;;23.00;78.10;;;;;;5019896;28;20053;-85
2023/09/18 11:11:20;;;;;;;5.90;2.58;;;23.00;77.90;;;;;;4993195;28;20022;-85
2023/09/18 11:13:54;;;;;;;4.43;2.10;;;23.10;78.00;;;;;;4993004;28;20402;-85
2023/09/18 11:16:28;;;;;;;4.78;2.63;;;23.10;77.70;;;;;;4991046;28;20058;-85
2023/09/18 11:19:00;;;;;;;3.47;2.17;;;23.10;77.20;;;;;;4990074;28;20026;-85
2023/09/18 11:21:31;;;;;;;3.15;2.05;;;23.10;77.30;;;;;;4992630;28;20038;-85
2023/09/18 11:24:04;;;;;;;3.50;2.10;;;23.10;77.60;;;;;;4991940;28;20019;-85
2023/09/18 11:26:31;;;;;;;5.35;2.40;;;23.10;77.20;;;;;;4993200;28;20038;-85
2023/09/18 11:29:05;;;;;;;4.35;2.50;;;23.10;77.00;;;;;;4992281;28;20029;-84
2023/09/18 11:31:50;;;;;;;4.15;2.50;;;23.00;76.70;;;;;;4997403;28;20227;-84
2023/09/18 11:34:19;;;;;;;4.60;2.70;;;22.90;76.70;;;;;;5017514;28;20035;-84
2023/09/18 11:36:45;;;;;;;3.08;2.10;;;22.90;76.70;;;;;;4993068;28;20026;-84
2023/09/18 11:39:11;;;;;;;3.25;2.10;;;22.80;77.00;;;;;;4989883;28;20045;-85
2023/09/18 11:41:38;;;;;;;3.92;2.65;;;22.80;77.30;;;;;;4996365;28;20117;-85
2023/09/18 11:44:13;;;;;;;2.88;2.30;;;22.80;77.20;;;;;;4994186;28;20033;-85
2023/09/18 11:46:40;;;;;;;8.00;2.53;;;22.80;77.50;;;;;;4993656;28;20026;-84
2023/09/18 11:49:09;;;;;;;7.28;2.67;;;22.80;77.60;;;;;;4992595;28;20030;-85
2023/09/18 11:51:35;;;;;;;3.75;2.13;;;22.70;77.80;;;;;;4992821;28;20524;-85
2023/09/18 11:54:03;;;;;;;7.05;2.90;;;22.80;78.20;;;;;;4993905;28;20038;-85
2023/09/18 11:56:29;;;;;;;5.40;2.80;;;22.70;78.20;;;;;;5005796;28;20037;-86
2023/09/18 11:58:55;;;;;;;2.95;2.42;;;22.80;78.20;;;;;;4993622;28;20030;-85
2023/09/18 12:01:22;;;;;;;4.63;2.70;;;23.00;78.30;;;;;;5023628;28;20030;-85
2023/09/18 12:03:55;;;;;;;4.55;2.75;;;23.30;78.00;;;;;;5000689;28;20172;-85
2023/09/18 12:06:21;;;;;;;5.10;2.70;;;23.50;77.30;;;;;;4997643;28;20044;-84
2023/09/18 12:08:48;;;;;;;14.07;8.73;;;23.60;76.60;;;;;;4996919;28;20037;-85
2023/09/18 12:11:19;;;;;;;4.15;3.33;;;23.80;75.70;;;;;;4991020;28;20085;-86
2023/09/18 12:13:50;;;;;;;5.05;2.85;;;24.00;75.60;;;;;;4990581;28;20035;-85
2023/09/18 12:16:16;;;;;;;4.28;2.80;;;24.10;75.10;;;;;;5016745;28;20493;-86
2023/09/18 12:18:49;;;;;;;4.18;2.65;;;24.30;74.90;;;;;;5000073;28;20026;-85
2023/09/18 12:21:16;;;;;;;5.05;2.42;;;24.40;73.20;;;;;;5002404;28;20041;-85
2023/09/18 12:23:44;;;;;;;3.92;2.50;;;24.50;73.20;;;;;;4995606;28;20081;-85
2023/09/18 12:26:14;;;;;;;3.22;2.35;;;24.60;71.70;;;;;;4991831;28;20064;-85
2023/09/18 12:28:41;;;;;;;5.28;2.80;;;24.50;71.10;;;;;;4997269;28;20042;-85
2023/09/18 12:31:11;;;;;;;5.00;2.70;;;24.50;70.60;;;;;;4995912;28;20080;-86
2023/09/18 12:33:38;;;;;;;6.32;2.40;;;24.50;69.50;;;;;;4994042;28;20038;-85
2023/09/18 12:36:05;;;;;;;3.42;2.28;;;24.40;69.70;;;;;;4998509;28;20022;-85
2023/09/18 12:38:32;;;;;;;4.25;2.40;;;24.50;70.20;;;;;;5028099;28;20023;-86
2023/09/18 12:41:05;;;;;;;4.07;2.38;;;24.60;70.00;;;;;;5005771;28;20088;-86
2023/09/18 12:43:41;;;;;;;5.20;2.85;;;24.80;70.00;;;;;;4995431;28;20057;-86